Tuesday, January 15, 2019, 7:06 PM EST
Back to Local

KEWR, Newark International Airport

Location: Elizabeth, NJ, United States Lat: 40.683
Local Time: 7:06 PM EST ( 0:06 GMT) Lon: -74.167
Time Zone: US/Eastern Elev: 16 ft

Show me the last for .
Show Coded

Time T Td Feel RH Dir Speed Gust Alt SLP Vis Weather Sky Remarks
2019-01-15 18:51 34 16 27 47 260° 8 - 30.14 30.14 10 FEW250 6-hr Min Temp (7pm): 33.1°F
6-hr Max Temp (7pm): 37.9°F
2019-01-15 17:51 34 16 30 47 290° 5 - 30.13 30.13 10 FEW150 SCT250 None
2019-01-15 16:51 34 15 27 45 300° 8 - 30.12 30.12 10 FEW150 SCT250 None
2019-01-15 15:51 37 16 31 41 320° 8 - 30.12 30.11 10 SCT150 BKN250 None
2019-01-15 14:51 36 15 33 41 Variable 3 - 30.11 30.11 10 BKN250 None
2019-01-15 13:51 38 15 36 38 Variable 3 - 30.12 30.11 10 BKN250 None
2019-01-15 12:51 35 15 28 43 330° 9 - 30.13 30.13 10 BKN250 6-hr Min Temp (1pm): 19.9°F
6-hr Max Temp (1pm): 35.1°F
2019-01-15 11:51 34 14 26 43 360° 10 - 30.16 30.15 10 BKN250 None
2019-01-15 10:51 32 13 24 44 360° 9 - 30.18 30.18 10 BKN250 None
2019-01-15 09:51 31 13 23 46 360° 9 - 30.18 30.18 10 BKN250 None
2019-01-15 08:51 26 15 18 62 20° 7 - 30.17 30.16 10 SCT250 None
2019-01-15 07:51 22 14 13 71 20° 8 - 30.15 30.15 10 FEW250 None
2019-01-15 06:51 21 12 13 67 20° 6 - 30.14 30.13 10 FEW250 6-hr Min Temp (7am): 19.9°F
6-hr Max Temp (7am): 26.1°F
2019-01-15 05:51 24 12 - 59 - Calm - 30.11 30.11 10 FEW250 None
2019-01-15 04:51 24 13 - 61 - Calm - 30.10 30.10 10 FEW250 None
2019-01-15 03:51 22 13 17 67 Variable 3 - 30.11 30.11 10 FEW250 None
2019-01-15 02:51 24 14 - 64 - Calm - 30.13 30.12 10 FEW250 None
2019-01-15 01:51 25 12 19 57 30° 5 - 30.13 30.13 10 FEW250 None
2019-01-15 00:51 24 12 18 59 10° 5 - 30.13 30.13 10 FEW250 6-hr Min Temp (1am): 24.1°F
6-hr Max Temp (1am): 30.9°F
2019-01-14 23:51 26 12 21 54 360° 5 - 30.14 30.14 10 FEW250 24-hr Min Temp (12am): 19.9°F
24-hr Max Temp (12am): 34.0°F
2019-01-14 22:51 26 13 18 56 30° 7 - 30.16 30.15 10 FEW250 None
2019-01-14 21:51 25 12 17 57 30° 7 - 30.16 30.15 10 FEW250 None
2019-01-14 20:51 26 12 21 54 30° 5 - 30.15 30.15 10 FEW250 None
2019-01-14 19:51 29 11 24 46 20° 5 - 30.15 30.15 10 FEW250 None

Support USWX by starting your Amazon purchase here.